createdAt,value
2022-11-26T00:01:44.049Z,26.33
2022-11-26T00:04:10.850Z,28.20
2022-11-26T00:06:41.691Z,26.40
2022-11-26T00:09:18.903Z,30.70
2022-11-26T00:11:48.761Z,33.97
2022-11-26T00:14:17.266Z,26.17
2022-11-26T00:16:45.043Z,32.33
2022-11-26T00:19:11.996Z,28.47
2022-11-26T00:21:42.228Z,26.33
2022-11-26T00:24:29.683Z,35.27
2022-11-26T00:26:59.746Z,26.97
2022-11-26T00:29:26.564Z,32.30
2022-11-26T00:31:53.443Z,26.83
2022-11-26T00:34:20.316Z,25.43
2022-11-26T00:36:48.321Z,26.23
2022-11-26T00:39:24.423Z,21.47
2022-11-26T00:41:53.250Z,30.73
2022-11-26T00:44:25.867Z,28.10
2022-11-26T00:46:53.007Z,30.60
2022-11-26T00:49:20.960Z,32.40
2022-11-26T00:51:48.123Z,36.00
2022-11-26T00:54:19.206Z,34.93
2022-11-26T00:56:48.128Z,35.13
2022-11-26T00:59:20.410Z,25.87
2022-11-26T01:01:47.649Z,27.27
2022-11-26T01:04:14.642Z,33.70
2022-11-26T01:06:44.695Z,39.77
2022-11-26T01:09:20.163Z,26.67
2022-11-26T01:11:53.480Z,33.67
2022-11-26T01:14:24.554Z,32.60
2022-11-26T01:16:57.151Z,37.00
2022-11-26T01:19:24.127Z,36.53
2022-11-26T01:21:50.962Z,30.20
2022-11-26T01:24:17.807Z,37.33
2022-11-26T01:26:45.492Z,31.70
2022-11-26T01:29:19.801Z,37.80
2022-11-26T01:31:47.310Z,38.07
2022-11-26T01:34:14.502Z,32.43
2022-11-26T01:36:42.426Z,31.17
2022-11-26T01:39:20.819Z,45.80
2022-11-26T01:42:19.547Z,39.07
2022-11-26T01:44:46.403Z,38.07
2022-11-26T01:47:27.713Z,44.80
2022-11-26T01:50:31.126Z,33.63
2022-11-26T01:53:11.226Z,39.63
2022-11-26T01:55:51.425Z,36.07
2022-11-26T01:58:28.126Z,35.53
2022-11-26T02:00:55.823Z,38.27
2022-11-26T02:03:24.012Z,39.47
2022-11-26T02:06:08.542Z,35.50
2022-11-26T02:08:36.556Z,32.63
2022-11-26T02:11:24.810Z,50.90
2022-11-26T02:13:58.535Z,37.03
2022-11-26T02:17:13.084Z,38.57
2022-11-26T02:20:05.323Z,37.30
2022-11-26T02:22:50.035Z,40.63
2022-11-26T02:26:03.849Z,36.40
2022-11-26T02:29:17.321Z,37.40
2022-11-26T02:32:03.389Z,43.83
2022-11-26T02:34:45.946Z,36.63
2022-11-26T02:37:25.413Z,34.83
2022-11-26T02:39:52.256Z,34.67
2022-11-26T02:42:35.266Z,44.40
2022-11-26T02:45:11.298Z,51.47
2022-11-26T02:47:43.069Z,48.20
2022-11-26T02:50:20.721Z,42.33
2022-11-26T02:52:51.162Z,44.67
2022-11-26T02:55:22.373Z,43.17
2022-11-26T02:57:51.895Z,36.37
2022-11-26T03:00:20.270Z,43.63
2022-11-26T03:02:52.418Z,45.80
2022-11-26T03:05:20.497Z,44.60
2022-11-26T03:07:51.836Z,38.43
2022-11-26T03:10:26.527Z,47.23
2022-11-26T03:12:53.954Z,46.60
2022-11-26T03:15:21.793Z,53.67
2022-11-26T03:17:48.944Z,39.60
2022-11-26T03:20:16.120Z,39.17
2022-11-26T03:22:43.368Z,40.53
2022-11-26T03:25:11.316Z,56.10
2022-11-26T03:27:38.359Z,43.00
2022-11-26T03:30:06.199Z,70.03
2022-11-26T03:32:33.030Z,48.07
2022-11-26T03:35:00.047Z,59.70
2022-11-26T03:37:26.840Z,47.93
2022-11-26T03:39:53.585Z,49.77
2022-11-26T03:42:20.349Z,45.50
2022-11-26T03:44:47.117Z,43.47
2022-11-26T03:47:13.928Z,55.33
2022-11-26T03:49:40.746Z,66.73
2022-11-26T03:52:07.512Z,42.63
2022-11-26T03:54:34.318Z,59.03
2022-11-26T03:57:01.165Z,42.93
2022-11-26T03:59:28.087Z,46.70
2022-11-26T04:01:55.100Z,43.47
2022-11-26T04:04:21.970Z,43.57
2022-11-26T04:06:48.851Z,57.07
2022-11-26T04:09:15.595Z,49.67
2022-11-26T04:11:42.568Z,51.97
2022-11-26T04:14:09.323Z,34.73
2022-11-26T04:16:36.424Z,48.43
2022-11-26T04:19:03.915Z,45.90
2022-11-26T04:21:30.729Z,55.43
2022-11-26T04:23:57.537Z,54.60
2022-11-26T04:26:24.332Z,79.00
2022-11-26T04:28:51.391Z,70.33
2022-11-26T04:31:18.530Z,37.30
2022-11-26T04:33:45.372Z,47.43
2022-11-26T04:36:12.716Z,44.47
2022-11-26T04:38:39.486Z,60.83
2022-11-26T04:41:06.577Z,66.03
2022-11-26T04:43:33.983Z,51.60
2022-11-26T04:46:01.008Z,52.93
2022-11-26T04:48:27.898Z,37.70
2022-11-26T04:50:54.741Z,43.80
2022-11-26T04:53:22.124Z,33.13
2022-11-26T04:55:51.495Z,36.90
2022-11-26T04:58:20.910Z,51.43
2022-11-26T05:00:50.943Z,39.07
2022-11-26T05:03:19.345Z,51.03
2022-11-26T05:05:47.180Z,45.27
2022-11-26T05:08:14.255Z,55.60
2022-11-26T05:10:41.111Z,48.17
2022-11-26T05:13:08.090Z,47.97
2022-11-26T05:15:34.939Z,46.27
2022-11-26T05:18:01.973Z,35.67
2022-11-26T05:20:28.738Z,40.40
2022-11-26T05:22:55.523Z,38.80
2022-11-26T05:25:22.423Z,48.40
2022-11-26T05:27:49.194Z,50.67
2022-11-26T05:30:16.291Z,46.83
2022-11-26T05:32:43.059Z,52.90
2022-11-26T05:35:10.301Z,48.10
2022-11-26T05:37:37.599Z,43.97
2022-11-26T05:40:06.035Z,47.33
2022-11-26T05:42:32.911Z,48.63
2022-11-26T05:44:59.863Z,53.07
2022-11-26T05:47:26.717Z,42.37
2022-11-26T05:49:53.738Z,47.93
2022-11-26T05:52:21.490Z,44.70
2022-11-26T05:54:48.421Z,48.27
2022-11-26T05:57:15.457Z,55.47
2022-11-26T05:59:42.459Z,50.30
2022-11-26T06:02:09.334Z,49.13
2022-11-26T06:04:36.499Z,58.37
2022-11-26T06:07:03.525Z,41.60
2022-11-26T06:09:30.309Z,48.23
2022-11-26T06:11:57.156Z,38.63
2022-11-26T06:14:23.955Z,39.67
2022-11-26T06:16:50.801Z,39.13
2022-11-26T06:19:17.701Z,45.03
2022-11-26T06:21:44.547Z,49.40
2022-11-26T06:24:11.815Z,44.63
2022-11-26T06:26:38.659Z,41.17
2022-11-26T06:29:05.605Z,35.77
2022-11-26T06:31:33.124Z,37.67
2022-11-26T06:34:00.123Z,36.30
2022-11-26T06:36:26.936Z,39.00
2022-11-26T06:38:53.844Z,44.47
2022-11-26T06:41:20.678Z,40.27
2022-11-26T06:43:47.726Z,40.33
2022-11-26T06:46:14.641Z,52.37
2022-11-26T06:48:41.766Z,31.57
2022-11-26T06:51:13.466Z,34.23
2022-11-26T06:53:40.809Z,33.47
2022-11-26T06:56:18.373Z,35.50
2022-11-26T06:58:46.870Z,31.77
2022-11-26T07:01:21.344Z,36.80
2022-11-26T07:03:48.388Z,34.87
2022-11-26T07:06:28.731Z,39.23
2022-11-26T07:08:58.616Z,27.90
2022-11-26T07:11:26.359Z,33.07
2022-11-26T07:13:53.566Z,39.03
2022-11-26T07:16:21.045Z,29.07
2022-11-26T07:18:51.495Z,32.13
2022-11-26T07:21:19.848Z,36.30
2022-11-26T07:23:47.976Z,31.43
2022-11-26T07:26:16.615Z,24.70
2022-11-26T07:28:43.810Z,25.47
2022-11-26T07:31:17.134Z,35.47
2022-11-26T07:33:45.938Z,31.80
2022-11-26T07:36:23.026Z,28.00
2022-11-26T07:38:50.156Z,35.57
2022-11-26T07:41:19.725Z,27.60
2022-11-26T07:43:46.952Z,27.23
2022-11-26T07:46:17.994Z,27.13
2022-11-26T07:48:45.355Z,29.07
2022-11-26T07:51:28.208Z,27.57
2022-11-26T07:53:58.943Z,25.90
2022-11-26T07:56:27.081Z,29.30
2022-11-26T07:58:54.190Z,25.80
2022-11-26T08:01:32.513Z,21.93
2022-11-26T08:04:03.540Z,27.93
2022-11-26T08:06:31.533Z,27.70
2022-11-26T08:09:03.862Z,22.33
2022-11-26T08:11:33.887Z,27.40
2022-11-26T08:14:07.744Z,28.93
2022-11-26T08:16:35.203Z,26.20
2022-11-26T08:19:11.727Z,28.27
2022-11-26T08:21:39.604Z,21.07
2022-11-26T08:24:12.368Z,27.53
2022-11-26T08:26:43.901Z,27.07
2022-11-26T08:29:12.872Z,25.80
2022-11-26T08:31:45.511Z,28.17
2022-11-26T08:34:16.357Z,24.70
2022-11-26T08:36:44.237Z,17.17
2022-11-26T08:39:17.535Z,20.83
2022-11-26T08:41:51.749Z,23.87
2022-11-26T08:44:20.551Z,20.87
2022-11-26T08:46:47.834Z,21.70
2022-11-26T08:49:15.529Z,27.47
2022-11-26T08:51:43.532Z,30.63
2022-11-26T08:54:11.110Z,15.70
2022-11-26T08:56:37.977Z,26.00
2022-11-26T08:59:04.832Z,28.77
2022-11-26T09:01:33.881Z,23.17
2022-11-26T09:04:03.485Z,20.60
2022-11-26T09:06:33.240Z,31.67
2022-11-26T09:09:14.231Z,21.00
2022-11-26T09:11:57.299Z,23.07
2022-11-26T09:14:28.042Z,23.90
2022-11-26T09:16:56.249Z,20.17
2022-11-26T09:19:24.708Z,20.80
2022-11-26T09:21:51.578Z,20.60
2022-11-26T09:24:18.521Z,19.53
2022-11-26T09:26:46.117Z,17.80
2022-11-26T09:29:16.140Z,16.87
2022-11-26T09:32:15.521Z,15.87
2022-11-26T09:34:32.307Z,17.53
2022-11-26T09:36:59.122Z,16.50
2022-11-26T09:39:25.930Z,16.13
2022-11-26T09:42:20.280Z,21.03
2022-11-26T09:45:25.719Z,18.83
2022-11-26T09:47:54.354Z,15.47
2022-11-26T09:50:32.075Z,14.87
2022-11-26T09:53:22.381Z,21.67
2022-11-26T09:55:52.570Z,13.33
2022-11-26T09:58:50.070Z,20.27
2022-11-26T10:01:22.683Z,15.23
2022-11-26T10:03:51.280Z,17.43
2022-11-26T10:06:58.598Z,15.93
2022-11-26T10:09:48.386Z,20.60
2022-11-26T10:13:23.333Z,19.40
2022-11-26T10:16:05.492Z,23.63
2022-11-26T10:18:45.580Z,14.93
2022-11-26T10:21:44.405Z,16.70
2022-11-26T10:24:41.987Z,12.68
2022-11-26T10:27:20.701Z,20.30
2022-11-26T10:30:01.718Z,14.37
2022-11-26T10:32:44.044Z,16.53
2022-11-26T10:35:18.893Z,13.57
2022-11-26T10:37:46.056Z,10.63
2022-11-26T10:40:32.388Z,13.00
2022-11-26T10:43:12.553Z,17.83
2022-11-26T10:45:57.174Z,14.97
2022-11-26T10:48:35.045Z,15.07
2022-11-26T10:51:25.127Z,14.53
2022-11-26T10:54:05.065Z,15.10
2022-11-26T10:56:35.861Z,16.00
2022-11-26T10:59:22.586Z,14.30
2022-11-26T11:01:54.305Z,11.00
2022-11-26T11:04:26.348Z,14.87
2022-11-26T11:06:53.810Z,15.18
2022-11-26T11:09:36.398Z,15.17
2022-11-26T11:12:12.169Z,16.70
2022-11-26T11:14:43.222Z,10.70
2022-11-26T11:17:37.914Z,12.75
2022-11-26T11:20:16.833Z,16.10
2022-11-26T11:22:47.838Z,12.17
2022-11-26T11:25:25.408Z,12.80
2022-11-26T11:28:01.368Z,10.15
2022-11-26T11:30:34.702Z,12.77
2022-11-26T11:33:25.820Z,13.40
2022-11-26T11:36:00.259Z,8.67
2022-11-26T11:38:31.617Z,9.67
2022-11-26T11:41:03.446Z,7.97
2022-11-26T11:43:36.992Z,12.90
2022-11-26T11:46:50.611Z,9.57
2022-11-26T11:49:44.684Z,9.70
2022-11-26T11:52:48.534Z,12.30
2022-11-26T11:55:44.098Z,12.63
2022-11-26T11:58:16.849Z,11.97
2022-11-26T12:01:10.257Z,15.83
2022-11-26T12:03:53.816Z,11.23
2022-11-26T12:06:41.334Z,10.53
2022-11-26T12:09:34.587Z,14.47
2022-11-26T12:12:25.805Z,13.85
2022-11-26T12:15:06.268Z,14.47
2022-11-26T12:18:03.247Z,13.40
2022-11-26T12:20:44.797Z,15.10
2022-11-26T12:23:28.290Z,12.13
2022-11-26T12:26:27.552Z,13.93
2022-11-26T12:29:18.398Z,10.57
2022-11-26T12:32:16.436Z,16.10
2022-11-26T12:35:10.623Z,14.63
2022-11-26T12:37:41.532Z,13.80
2022-11-26T12:40:40.705Z,11.50
2022-11-26T12:43:21.274Z,14.60
2022-11-26T12:46:16.101Z,13.97
2022-11-26T12:49:20.485Z,18.00
2022-11-26T12:52:47.348Z,11.13
2022-11-26T12:55:31.675Z,13.07
2022-11-26T12:58:08.681Z,14.57
2022-11-26T13:00:36.592Z,15.17
2022-11-26T13:03:06.697Z,14.80
2022-11-26T13:06:08.869Z,12.63
2022-11-26T13:08:47.741Z,10.90
2022-11-26T13:11:41.539Z,11.10
2022-11-26T13:14:45.967Z,12.67
2022-11-26T13:17:18.757Z,11.43
2022-11-26T13:19:55.101Z,13.40
2022-11-26T13:22:53.821Z,15.17
2022-11-26T13:26:09.285Z,11.03
2022-11-26T13:29:19.876Z,17.13
2022-11-26T14:07:05.814Z,12.67
2022-11-26T14:09:44.598Z,12.73
2022-11-26T14:12:19.948Z,15.60
2022-11-26T14:14:49.093Z,15.63
2022-11-26T14:17:26.584Z,19.33
2022-11-26T14:19:58.441Z,11.57
2022-11-26T14:22:35.411Z,14.57
2022-11-26T14:25:09.691Z,15.30
2022-11-26T14:27:48.468Z,15.67
2022-11-26T14:30:22.835Z,14.43
2022-11-26T14:33:23.542Z,10.47
2022-11-26T14:35:56.661Z,13.33
2022-11-26T14:38:31.386Z,10.13
2022-11-26T14:41:02.457Z,13.73
2022-11-26T14:43:29.835Z,14.97
2022-11-26T14:46:06.191Z,10.50
2022-11-26T14:48:40.597Z,8.83
2022-11-26T14:51:13.373Z,9.47
2022-11-26T14:53:48.710Z,13.20
2022-11-26T14:56:18.735Z,12.70
2022-11-26T14:58:54.424Z,14.20
2022-11-26T15:01:25.082Z,11.73
2022-11-26T15:04:06.674Z,12.37
2022-11-26T15:06:42.822Z,15.23
2022-11-26T15:09:16.574Z,11.70
2022-11-26T15:12:12.089Z,14.53
2022-11-26T15:14:54.550Z,9.23
2022-11-26T15:17:26.229Z,9.60
2022-11-26T15:19:56.731Z,13.40
2022-11-26T15:22:38.994Z,10.47
2022-11-26T15:25:20.051Z,13.33
2022-11-26T15:28:18.665Z,9.63
2022-11-26T15:31:01.320Z,8.03
2022-11-26T15:33:31.892Z,9.17
2022-11-26T15:35:59.191Z,7.43
2022-11-26T15:38:31.793Z,6.63
2022-11-26T15:41:19.705Z,12.20
2022-11-26T15:43:51.734Z,10.50
2022-11-26T15:46:32.504Z,6.83
2022-11-26T15:49:05.614Z,8.63
2022-11-26T15:51:49.248Z,8.63
2022-11-26T15:55:10.831Z,8.23
2022-11-26T15:57:40.124Z,10.53
2022-11-26T16:00:20.248Z,11.83
2022-11-26T16:02:47.208Z,10.93
2022-11-26T16:05:39.338Z,11.70
2022-11-26T16:08:24.056Z,9.40
2022-11-26T16:11:03.065Z,10.20
2022-11-26T16:13:32.368Z,7.90
2022-11-26T16:16:16.817Z,9.50
2022-11-26T16:18:56.074Z,9.87
2022-11-26T16:21:30.274Z,8.70
2022-11-26T16:24:07.617Z,9.07
2022-11-26T16:27:25.035Z,13.70
2022-11-26T16:29:51.884Z,7.10
2022-11-26T16:32:19.192Z,12.60
2022-11-26T16:34:46.062Z,10.77
2022-11-26T16:37:27.458Z,8.27
2022-11-26T16:40:13.323Z,7.03
2022-11-26T16:42:40.138Z,10.27
2022-11-26T16:45:08.931Z,7.50
2022-11-26T16:47:49.777Z,6.07
2022-11-26T16:50:26.070Z,8.27
2022-11-26T16:52:54.477Z,11.17
2022-11-26T16:55:26.706Z,11.10
2022-11-26T16:57:58.131Z,5.47
2022-11-26T17:00:27.115Z,12.87
2022-11-26T17:02:54.787Z,8.27
2022-11-26T17:05:22.622Z,9.97
2022-11-26T17:07:57.025Z,5.77
2022-11-26T17:10:31.024Z,11.43
2022-11-26T17:12:58.475Z,14.10
2022-11-26T17:15:27.382Z,12.87
2022-11-26T17:18:02.919Z,13.27
2022-11-26T17:20:29.758Z,16.47
2022-11-26T17:22:56.562Z,14.80
2022-11-26T17:25:23.506Z,19.73
2022-11-26T17:27:53.243Z,19.30
2022-11-26T17:30:24.075Z,13.03
2022-11-26T17:32:51.314Z,22.47
2022-11-26T17:35:18.839Z,16.40
2022-11-26T17:37:45.976Z,17.80
2022-11-26T17:40:22.811Z,14.47
2022-11-26T17:42:50.630Z,20.13
2022-11-26T17:45:18.760Z,17.07
2022-11-26T17:47:46.463Z,22.33
2022-11-26T17:50:22.957Z,26.23
2022-11-26T17:52:50.576Z,24.83
2022-11-26T17:55:19.295Z,33.63
2022-11-26T17:57:46.126Z,27.70
2022-11-26T18:00:17.983Z,22.63
2022-11-26T18:02:46.230Z,23.93
2022-11-26T18:05:13.995Z,20.83
2022-11-26T18:07:41.256Z,19.97
2022-11-26T18:10:15.432Z,24.57
2022-11-26T18:12:43.499Z,19.57
2022-11-26T18:15:22.000Z,22.13
2022-11-26T18:17:51.773Z,23.07
2022-11-26T18:20:21.964Z,25.80
2022-11-26T18:22:58.492Z,23.50
2022-11-26T18:25:27.034Z,22.93
2022-11-26T18:27:54.385Z,19.33
2022-11-26T18:30:21.407Z,27.23
2022-11-26T18:32:51.346Z,16.57
2022-11-26T18:35:18.386Z,20.97
2022-11-26T18:37:45.425Z,16.17
2022-11-26T18:40:17.032Z,20.40
2022-11-26T18:42:44.391Z,22.33
2022-11-26T18:45:15.061Z,20.40
2022-11-26T18:47:42.399Z,19.87
2022-11-26T18:50:09.916Z,23.97
2022-11-26T18:52:36.797Z,19.90
2022-11-26T18:55:07.256Z,20.20
2022-11-26T18:57:34.048Z,19.10
2022-11-26T19:00:00.914Z,18.70
2022-11-26T19:02:27.780Z,19.17
2022-11-26T19:04:54.640Z,18.57
2022-11-26T19:07:21.428Z,22.30
2022-11-26T19:09:48.814Z,16.57
2022-11-26T19:12:15.643Z,16.97
2022-11-26T19:14:42.467Z,18.27
2022-11-26T19:17:12.403Z,16.40
2022-11-26T19:19:42.387Z,20.70
2022-11-26T19:22:09.236Z,17.80
2022-11-26T19:24:36.095Z,28.50
2022-11-26T19:27:02.890Z,21.90
2022-11-26T19:29:29.644Z,23.40
2022-11-26T19:31:56.442Z,22.60
2022-11-26T19:34:23.241Z,29.87
2022-11-26T19:36:53.161Z,25.57
2022-11-26T19:39:20.242Z,28.37
2022-11-26T19:41:47.020Z,19.37
2022-11-26T19:44:13.879Z,27.60
2022-11-26T19:46:41.783Z,32.30
2022-11-26T19:49:12.221Z,24.97
2022-11-26T19:51:39.424Z,33.07
2022-11-26T19:54:07.143Z,33.50
2022-11-26T19:56:35.023Z,29.67
2022-11-26T19:59:02.478Z,27.47
2022-11-26T20:01:33.279Z,26.60
2022-11-26T20:04:03.985Z,26.90
2022-11-26T20:06:33.870Z,30.10
2022-11-26T20:09:04.102Z,34.83
2022-11-26T20:11:30.989Z,39.23
2022-11-26T20:13:58.675Z,35.97
2022-11-26T20:16:29.900Z,28.43
2022-11-26T20:18:58.838Z,25.50
2022-11-26T20:21:29.296Z,29.00
2022-11-26T20:24:00.608Z,32.43
2022-11-26T20:26:35.101Z,17.43
2022-11-26T20:29:06.510Z,23.03
2022-11-26T20:31:34.791Z,28.60
2022-11-26T20:34:04.157Z,26.17
2022-11-26T20:36:31.956Z,17.13
2022-11-26T20:39:01.997Z,19.80
2022-11-26T20:41:30.342Z,19.67
2022-11-26T20:43:59.346Z,23.07
2022-11-26T20:46:28.343Z,20.50
2022-11-26T20:48:56.544Z,27.53
2022-11-26T20:51:24.515Z,18.87
2022-11-26T20:53:58.469Z,23.93
2022-11-26T20:56:25.456Z,21.57
2022-11-26T20:58:52.980Z,25.77
2022-11-26T21:01:24.071Z,23.97
2022-11-26T21:03:52.563Z,20.33
2022-11-26T21:06:29.039Z,21.83
2022-11-26T21:09:00.761Z,19.47
2022-11-26T21:11:28.526Z,22.17
2022-11-26T21:13:55.356Z,19.67
2022-11-26T21:16:23.288Z,19.10
2022-11-26T21:18:54.196Z,18.57
2022-11-26T21:21:21.613Z,20.03
2022-11-26T21:23:48.521Z,12.77
2022-11-26T21:26:25.733Z,14.77
2022-11-26T21:28:58.947Z,19.63
2022-11-26T21:31:29.670Z,20.40
2022-11-26T21:34:00.875Z,10.83
2022-11-26T21:36:30.136Z,16.40
2022-11-26T21:38:57.273Z,10.13
2022-11-26T21:41:25.566Z,13.00
2022-11-26T21:43:52.592Z,13.07
2022-11-26T21:46:23.962Z,13.17
2022-11-26T21:48:53.213Z,14.33
2022-11-26T21:51:20.713Z,16.13
2022-11-26T21:53:49.755Z,15.50
2022-11-26T21:56:21.995Z,12.20
2022-11-26T21:58:50.251Z,12.83
2022-11-26T22:01:31.651Z,13.37
2022-11-26T22:04:10.428Z,14.20
2022-11-26T22:06:37.598Z,13.87
2022-11-26T22:09:06.044Z,17.30
2022-11-26T22:11:37.510Z,12.27
2022-11-26T22:14:05.746Z,10.40
2022-11-26T22:16:32.916Z,11.83
2022-11-26T22:19:01.550Z,17.73
2022-11-26T22:21:33.464Z,9.23
2022-11-26T22:24:02.862Z,12.07
2022-11-26T22:26:31.157Z,14.17
2022-11-26T22:28:59.340Z,12.77
2022-11-26T22:31:35.850Z,11.30
2022-11-26T22:34:10.129Z,11.50
2022-11-26T22:36:38.784Z,8.63
2022-11-26T22:39:10.904Z,9.93
2022-11-26T22:41:40.810Z,11.07
2022-11-26T22:44:08.343Z,14.97
2022-11-26T22:46:38.131Z,9.87
2022-11-26T22:49:06.066Z,9.93
2022-11-26T22:51:36.481Z,12.77
2022-11-26T22:54:07.377Z,13.43
2022-11-26T22:56:39.750Z,12.80
2022-11-26T22:59:09.152Z,11.43
2022-11-26T23:01:37.132Z,12.93
2022-11-26T23:04:08.014Z,12.57
2022-11-26T23:06:36.431Z,13.40
2022-11-26T23:09:06.800Z,10.97
2022-11-26T23:11:40.375Z,10.90
2022-11-26T23:14:09.540Z,10.27
2022-11-26T23:16:39.082Z,16.30
2022-11-26T23:19:07.150Z,9.83
2022-11-26T23:21:39.939Z,12.00
2022-11-26T23:24:07.820Z,11.10
2022-11-26T23:26:37.406Z,14.70
2022-11-26T23:29:06.133Z,8.47
2022-11-26T23:31:40.408Z,12.90
2022-11-26T23:34:08.753Z,11.07
2022-11-26T23:36:37.177Z,12.23
2022-11-26T23:39:07.226Z,14.07
2022-11-26T23:41:34.270Z,13.77
2022-11-26T23:44:01.063Z,15.63
2022-11-26T23:46:31.224Z,14.73
2022-11-26T23:48:58.706Z,17.63
2022-11-26T23:51:32.007Z,13.27
2022-11-26T23:53:58.861Z,13.57
2022-11-26T23:56:31.643Z,13.37
2022-11-26T23:59:02.607Z,13.73
